createdAt,value
2023-05-12T00:02:42.338Z,11.16
2023-05-12T00:05:44.076Z,11.11
2023-05-12T00:08:47.808Z,11.07
2023-05-12T00:11:49.660Z,11.06
2023-05-12T00:14:51.363Z,11.06
2023-05-12T00:17:54.588Z,11.01
2023-05-12T00:20:56.230Z,11.01
2023-05-12T00:23:58.261Z,10.96
2023-05-12T00:27:03.554Z,10.99
2023-05-12T00:30:06.129Z,11.01
2023-05-12T00:33:09.417Z,10.97
2023-05-12T00:36:11.775Z,10.96
2023-05-12T00:39:13.657Z,10.93
2023-05-12T00:42:15.332Z,10.94
2023-05-12T00:45:17.318Z,10.91
2023-05-12T00:48:20.596Z,10.92
2023-05-12T00:51:22.243Z,10.91
2023-05-12T00:54:23.932Z,10.90
2023-05-12T00:57:27.963Z,10.92
2023-05-12T01:00:30.465Z,10.91
2023-05-12T01:03:34.191Z,10.88
2023-05-12T01:06:40.022Z,10.85
2023-05-12T01:09:43.137Z,10.87
2023-05-12T01:12:45.736Z,10.87
2023-05-12T01:15:48.287Z,10.84
2023-05-12T01:18:53.421Z,10.85
2023-05-12T01:21:55.934Z,10.87
2023-05-12T01:24:59.120Z,10.94
2023-05-12T01:28:04.333Z,10.97
2023-05-12T01:31:07.473Z,10.97
2023-05-12T01:34:14.275Z,10.99
2023-05-12T01:37:16.332Z,11.00
2023-05-12T01:40:19.520Z,11.01
2023-05-12T01:43:22.778Z,11.01
2023-05-12T01:46:24.731Z,11.00
2023-05-12T01:49:28.847Z,10.99
2023-05-12T01:52:30.758Z,11.03
2023-05-12T01:55:32.598Z,11.03
2023-05-12T01:58:35.699Z,11.05
2023-05-12T02:01:37.652Z,11.04
2023-05-12T02:04:40.625Z,11.02
2023-05-12T02:07:42.582Z,11.02
2023-05-12T02:10:45.831Z,10.97
2023-05-12T02:13:49.295Z,10.94
2023-05-12T02:16:52.858Z,10.94
2023-05-12T02:19:56.155Z,10.91
2023-05-12T02:22:58.114Z,10.85
2023-05-12T02:25:59.878Z,10.85
2023-05-12T02:29:02.971Z,10.84
2023-05-12T02:32:05.132Z,10.84
2023-05-12T02:35:07.675Z,10.86
2023-05-12T02:38:11.531Z,10.84
2023-05-12T02:41:13.495Z,10.84
2023-05-12T02:44:17.918Z,10.84
2023-05-12T02:47:19.629Z,10.82
2023-05-12T02:50:21.967Z,10.83
2023-05-12T02:53:24.066Z,10.84
2023-05-12T02:56:26.448Z,10.84
2023-05-12T02:59:30.518Z,10.84
2023-05-12T03:02:32.453Z,10.86
2023-05-12T03:05:34.384Z,10.89
2023-05-12T03:08:36.457Z,10.90
2023-05-12T03:11:41.135Z,10.90
2023-05-12T03:14:44.603Z,10.91
2023-05-12T03:17:46.472Z,10.93
2023-05-12T03:20:48.399Z,10.92
2023-05-12T03:23:50.252Z,10.92
2023-05-12T03:26:51.943Z,10.91
2023-05-12T03:29:55.081Z,10.92
2023-05-12T03:32:57.208Z,10.96
2023-05-12T03:35:59.244Z,10.98
2023-05-12T03:39:03.106Z,10.98
2023-05-12T03:42:05.142Z,10.99
2023-05-12T03:45:09.525Z,11.02
2023-05-12T03:48:11.344Z,11.06
2023-05-12T03:51:13.096Z,11.08
2023-05-12T03:54:17.232Z,11.08
2023-05-12T03:57:18.860Z,11.08
2023-05-12T04:00:22.412Z,11.04
2023-05-12T04:03:24.453Z,11.02
2023-05-12T04:06:26.308Z,11.01
2023-05-12T04:09:28.050Z,11.00
2023-05-12T04:12:30.225Z,10.97
2023-05-12T04:15:33.734Z,10.99
2023-05-12T04:18:36.924Z,11.03
2023-05-12T04:21:38.675Z,11.07
2023-05-12T04:24:41.061Z,11.08
2023-05-12T04:27:42.954Z,11.07
2023-05-12T04:30:46.248Z,11.07
2023-05-12T04:33:48.596Z,11.04
2023-05-12T04:36:50.441Z,11.04
2023-05-12T04:39:52.754Z,11.02
2023-05-12T04:42:54.966Z,11.00
2023-05-12T04:45:59.969Z,11.01
2023-05-12T04:49:02.473Z,10.96
2023-05-12T04:52:05.824Z,10.92
2023-05-12T04:55:08.801Z,10.91
2023-05-12T04:58:11.303Z,10.98
2023-05-12T05:01:17.102Z,11.03
2023-05-12T05:04:19.553Z,11.04
2023-05-12T05:07:21.519Z,11.10
2023-05-12T05:10:23.529Z,11.18
2023-05-12T05:13:25.382Z,11.21
2023-05-12T05:16:28.851Z,11.23
2023-05-12T05:22:39.481Z,11.27
2023-05-12T05:25:42.203Z,11.29
2023-05-12T05:28:45.400Z,11.31
2023-05-12T05:31:48.547Z,11.29
2023-05-12T05:34:50.789Z,11.28
2023-05-12T05:37:54.606Z,11.27
2023-05-12T05:40:58.029Z,11.27
2023-05-12T05:44:01.645Z,11.29
2023-05-12T05:47:06.177Z,11.37
2023-05-12T05:50:08.924Z,11.43
2023-05-12T05:53:13.279Z,11.47
2023-05-12T05:56:15.651Z,11.50
2023-05-12T05:59:17.703Z,11.53
2023-05-12T06:02:23.294Z,11.61
2023-05-12T06:05:24.970Z,11.66
2023-05-12T06:08:26.746Z,11.70
2023-05-12T06:11:29.489Z,11.74
2023-05-12T06:14:31.288Z,11.76
2023-05-12T06:17:34.640Z,11.80
2023-05-12T06:20:37.376Z,11.82
2023-05-12T06:23:39.107Z,11.83
2023-05-12T06:26:41.029Z,11.92
2023-05-12T06:29:42.792Z,12.03
2023-05-12T06:32:46.336Z,12.16
2023-05-12T06:35:48.497Z,12.28
2023-05-12T06:38:51.027Z,12.32
2023-05-12T06:41:52.686Z,12.41
2023-05-12T06:44:56.082Z,12.47
2023-05-12T06:47:59.332Z,12.56
2023-05-12T06:51:02.406Z,12.59
2023-05-12T06:54:04.010Z,12.57
2023-05-12T06:57:06.081Z,12.55
2023-05-12T07:00:10.498Z,12.65
2023-05-12T07:03:13.925Z,12.78
2023-05-12T07:06:15.815Z,12.88
2023-05-12T07:09:18.858Z,12.94
2023-05-12T07:12:20.958Z,13.00
2023-05-12T07:15:23.091Z,13.03
2023-05-12T07:18:26.586Z,13.16
2023-05-12T07:21:29.640Z,13.21
2023-05-12T07:24:31.322Z,13.29
2023-05-12T07:27:33.078Z,13.36
2023-05-12T07:30:34.942Z,13.45
2023-05-12T07:33:38.673Z,13.38
2023-05-12T07:36:40.519Z,13.42
2023-05-12T07:39:42.089Z,13.51
2023-05-12T07:42:44.133Z,13.52
2023-05-12T07:45:46.114Z,13.52
2023-05-12T07:48:49.207Z,13.61
2023-05-12T07:51:50.928Z,13.59
2023-05-12T07:54:52.968Z,13.59
2023-05-12T07:57:54.787Z,13.63
2023-05-12T08:00:59.028Z,13.75
2023-05-12T08:04:01.966Z,14.00
2023-05-12T08:07:03.895Z,14.12
2023-05-12T08:10:06.564Z,14.09
2023-05-12T08:13:08.286Z,14.08
2023-05-12T08:16:09.853Z,14.35
2023-05-12T08:19:13.200Z,14.53
2023-05-12T08:22:14.938Z,14.64
2023-05-12T08:25:16.713Z,14.68
2023-05-12T08:28:18.619Z,14.75
2023-05-12T08:31:21.038Z,14.85
2023-05-12T08:34:24.399Z,14.95
2023-05-12T08:37:26.627Z,14.97
2023-05-12T08:40:30.323Z,14.99
2023-05-12T08:43:38.006Z,15.08
2023-05-12T08:46:39.823Z,15.17
2023-05-12T08:49:44.168Z,15.28
2023-05-12T08:52:46.029Z,15.30
2023-05-12T08:56:01.150Z,15.41
2023-05-12T08:59:09.970Z,15.51
2023-05-12T09:02:11.934Z,15.60
2023-05-12T09:05:15.250Z,15.56
2023-05-12T09:08:16.961Z,15.63
2023-05-12T09:11:20.438Z,15.63
2023-05-12T09:14:25.451Z,15.51
2023-05-12T09:17:27.322Z,15.63
2023-05-12T09:20:31.858Z,15.84
2023-05-12T09:23:35.272Z,15.84
2023-05-12T09:26:45.312Z,15.78
2023-05-12T09:29:59.258Z,15.86
2023-05-12T09:33:08.488Z,15.92
2023-05-12T09:36:11.765Z,15.94
2023-05-12T09:39:13.554Z,15.89
2023-05-12T09:42:15.818Z,15.99
2023-05-12T09:45:17.554Z,16.15
2023-05-12T09:48:19.200Z,16.29
2023-05-12T09:51:22.335Z,16.45
2023-05-12T09:54:24.406Z,16.61
2023-05-12T09:57:26.388Z,16.60
2023-05-12T10:00:43.281Z,16.72
2023-05-12T10:03:51.169Z,16.79
2023-05-12T10:06:56.421Z,16.86
2023-05-12T10:09:59.831Z,16.93
2023-05-12T10:13:01.862Z,17.05
2023-05-12T10:16:06.980Z,17.12
2023-05-12T10:19:09.063Z,17.23
2023-05-12T10:22:15.869Z,17.47
2023-05-12T10:25:17.921Z,17.68
2023-05-12T10:28:20.364Z,17.78
2023-05-12T10:31:23.070Z,17.92
2023-05-12T10:34:30.889Z,17.90
2023-05-12T10:37:34.996Z,17.88
2023-05-12T10:40:37.111Z,18.04
2023-05-12T10:43:39.463Z,18.14
2023-05-12T10:46:42.002Z,18.29
2023-05-12T10:49:44.117Z,18.43
2023-05-12T10:52:54.590Z,18.56
2023-05-12T10:55:57.039Z,18.49
2023-05-12T10:59:10.218Z,18.46
2023-05-12T11:02:15.801Z,18.60
2023-05-12T11:05:17.984Z,18.76
2023-05-12T11:08:21.610Z,18.88
2023-05-12T11:11:25.018Z,18.94
2023-05-12T11:14:27.343Z,19.04
2023-05-12T11:17:29.329Z,19.17
2023-05-12T11:20:31.299Z,19.21
2023-05-12T11:23:37.887Z,19.25
2023-05-12T11:26:40.851Z,19.26
2023-05-12T11:29:42.808Z,19.42
2023-05-12T11:32:44.677Z,19.48
2023-05-12T11:35:46.830Z,19.62
2023-05-12T11:38:50.627Z,19.79
2023-05-12T11:41:59.248Z,19.67
2023-05-12T11:45:02.058Z,19.80
2023-05-12T11:51:35.047Z,19.92
2023-05-12T11:54:38.963Z,20.10
2023-05-12T11:57:45.203Z,20.20
2023-05-12T12:00:47.431Z,20.46
2023-05-12T12:03:50.574Z,20.30
2023-05-12T12:06:52.322Z,20.24
2023-05-12T12:09:56.365Z,20.24
2023-05-12T12:12:59.512Z,20.24
2023-05-12T12:16:01.590Z,20.20
2023-05-12T12:19:03.226Z,20.22
2023-05-12T12:22:05.202Z,20.36
2023-05-12T12:25:09.074Z,20.45
2023-05-12T12:28:11.139Z,20.51
2023-05-12T12:31:14.433Z,20.78
2023-05-12T12:34:16.323Z,20.79
2023-05-12T12:37:18.386Z,20.76
2023-05-12T12:40:21.454Z,20.77
2023-05-12T12:43:23.334Z,20.88
2023-05-12T12:46:25.057Z,20.87
2023-05-12T12:49:27.542Z,21.04
2023-05-12T12:52:29.123Z,21.10
2023-05-12T12:55:32.369Z,20.94
2023-05-12T12:58:34.036Z,21.04
2023-05-12T13:01:36.054Z,20.72
2023-05-12T13:04:37.724Z,20.67
2023-05-12T13:07:39.467Z,20.76
2023-05-12T13:10:43.677Z,20.86
2023-05-12T13:13:45.890Z,20.59
2023-05-12T13:16:47.575Z,20.77
2023-05-12T13:19:49.469Z,20.96
2023-05-12T13:22:51.280Z,20.99
2023-05-12T13:25:54.461Z,21.12
2023-05-12T13:28:56.141Z,21.20
2023-05-12T13:31:58.055Z,21.21
2023-05-12T13:35:00.151Z,21.07
2023-05-12T13:38:02.075Z,21.11
2023-05-12T13:41:05.171Z,20.98
2023-05-12T13:44:06.821Z,21.18
2023-05-12T13:47:09.408Z,21.24
2023-05-12T13:50:11.091Z,21.22
2023-05-12T13:53:13.505Z,21.36
2023-05-12T13:56:17.080Z,21.54
2023-05-12T13:59:18.857Z,21.59
2023-05-12T14:02:22.089Z,21.24
2023-05-12T14:05:24.631Z,21.23
2023-05-12T14:08:26.575Z,21.10
2023-05-12T14:11:29.877Z,21.31
2023-05-12T14:14:35.835Z,21.11
2023-05-12T14:17:37.869Z,21.08
2023-05-12T14:20:39.794Z,21.17
2023-05-12T14:23:41.837Z,21.35
2023-05-12T14:26:49.771Z,21.39
2023-05-12T14:29:51.513Z,21.24
2023-05-12T14:32:53.747Z,21.17
2023-05-12T14:36:05.808Z,21.25
2023-05-12T14:39:09.822Z,21.27
2023-05-12T14:42:13.350Z,21.39
2023-05-12T14:45:15.155Z,21.38
2023-05-12T14:48:16.869Z,21.58
2023-05-12T14:51:21.339Z,21.71
2023-05-12T14:54:25.900Z,21.67
2023-05-12T14:57:29.341Z,21.71
2023-05-12T15:00:31.663Z,21.60
2023-05-12T15:03:33.932Z,20.58
2023-05-12T15:06:35.993Z,19.92
2023-05-12T15:09:37.596Z,19.54
2023-05-12T15:12:40.761Z,20.09
2023-05-12T15:15:42.420Z,20.52
2023-05-12T15:18:45.014Z,20.79
2023-05-12T15:21:47.013Z,20.88
2023-05-12T15:24:48.887Z,20.97
2023-05-12T15:27:51.890Z,21.11
2023-05-12T15:30:58.323Z,21.11
2023-05-12T15:34:00.656Z,20.92
2023-05-12T15:37:02.525Z,20.82
2023-05-12T15:40:05.357Z,20.84
2023-05-12T15:43:08.556Z,20.80
2023-05-12T15:46:11.550Z,20.68
2023-05-12T15:49:13.561Z,20.67
2023-05-12T15:52:15.225Z,20.70
2023-05-12T15:55:17.135Z,20.63
2023-05-12T15:58:20.000Z,20.61
2023-05-12T16:01:22.692Z,20.51
2023-05-12T16:04:25.235Z,20.57
2023-05-12T16:07:31.091Z,20.54
2023-05-12T16:10:34.923Z,20.42
2023-05-12T16:13:37.988Z,20.47
2023-05-12T16:16:43.254Z,20.37
2023-05-12T16:19:45.212Z,20.29
2023-05-12T16:22:47.122Z,20.31
2023-05-12T16:25:49.000Z,20.14
2023-05-12T16:28:52.208Z,20.01
2023-05-12T16:31:53.936Z,19.90
2023-05-12T16:34:56.786Z,19.78
2023-05-12T16:37:58.391Z,19.67
2023-05-12T16:41:00.160Z,19.59
2023-05-12T16:44:03.211Z,19.50
2023-05-12T16:47:05.469Z,19.44
2023-05-12T16:50:07.970Z,19.35
2023-05-12T16:53:09.968Z,19.25
2023-05-12T16:56:12.167Z,19.23
2023-05-12T16:59:15.545Z,19.04
2023-05-12T17:02:17.406Z,19.01
2023-05-12T17:05:19.576Z,18.92
2023-05-12T17:08:21.698Z,18.90
2023-05-12T17:11:25.551Z,18.88
2023-05-12T17:14:28.802Z,18.80
2023-05-12T17:17:30.926Z,18.77
2023-05-12T17:20:32.624Z,18.71
2023-05-12T17:23:34.821Z,18.65
2023-05-12T17:26:36.923Z,18.54
2023-05-12T17:29:40.456Z,18.53
2023-05-12T17:32:42.930Z,18.45
2023-05-12T17:35:53.572Z,18.44
2023-05-12T17:39:05.839Z,18.34
2023-05-12T17:42:07.675Z,18.21
2023-05-12T17:45:11.665Z,18.22
2023-05-12T17:48:13.923Z,18.11
2023-05-12T17:51:16.517Z,18.06
2023-05-12T17:54:28.667Z,17.95
2023-05-12T17:57:34.657Z,17.90
2023-05-12T18:00:37.893Z,17.83
2023-05-12T18:03:39.947Z,17.76
2023-05-12T18:06:41.683Z,17.66
2023-05-12T18:09:43.537Z,17.58
2023-05-12T18:12:45.160Z,17.48
2023-05-12T18:15:50.596Z,17.41
2023-05-12T18:18:53.138Z,17.28
2023-05-12T18:21:54.876Z,17.21
2023-05-12T18:24:56.534Z,17.12
2023-05-12T18:27:58.628Z,16.99
2023-05-12T18:31:09.233Z,16.91
2023-05-12T18:34:17.582Z,16.83
2023-05-12T18:37:19.462Z,16.73
2023-05-12T18:40:21.238Z,16.60
2023-05-12T18:43:23.035Z,16.57
2023-05-12T18:46:26.139Z,16.48
2023-05-12T18:49:28.164Z,16.44
2023-05-12T18:52:29.741Z,16.30
2023-05-12T18:55:31.273Z,16.21
2023-05-12T18:58:33.179Z,16.10
2023-05-12T19:01:36.428Z,16.03
2023-05-12T19:04:38.311Z,15.91
2023-05-12T19:07:40.091Z,15.78
2023-05-12T19:10:47.514Z,15.71
2023-05-12T19:13:50.807Z,15.65
2023-05-12T19:16:54.261Z,15.62
2023-05-12T19:19:55.864Z,15.60
2023-05-12T19:22:57.464Z,15.58
2023-05-12T19:25:59.199Z,15.56
2023-05-12T19:29:02.081Z,15.53
2023-05-12T19:32:05.927Z,15.40
2023-05-12T19:35:10.617Z,15.28
2023-05-12T19:38:12.438Z,15.11
2023-05-12T19:41:13.973Z,14.99
2023-05-12T19:44:15.446Z,14.93
2023-05-12T19:47:19.006Z,14.91
2023-05-12T19:50:21.266Z,14.93
2023-05-12T19:53:26.891Z,14.93
2023-05-12T19:56:29.389Z,14.91
2023-05-12T19:59:31.515Z,14.88
2023-05-12T20:02:34.786Z,14.85
2023-05-12T20:05:37.703Z,14.88
2023-05-12T20:08:39.397Z,14.87
2023-05-12T20:11:40.997Z,14.88
2023-05-12T20:14:43.725Z,14.83
2023-05-12T20:17:47.150Z,14.85
2023-05-12T20:20:49.394Z,14.84
2023-05-12T20:23:51.178Z,14.84
2023-05-12T20:26:53.158Z,14.78
2023-05-12T20:29:54.813Z,14.72
2023-05-12T20:32:58.396Z,14.67
2023-05-12T20:36:00.050Z,14.63
2023-05-12T20:39:01.704Z,14.67
2023-05-12T20:42:04.314Z,14.61
2023-05-12T20:45:06.653Z,14.65
2023-05-12T20:48:10.194Z,14.60
2023-05-12T20:51:12.398Z,14.55
2023-05-12T20:54:18.004Z,14.48
2023-05-12T20:57:20.349Z,14.49
2023-05-12T21:00:22.677Z,14.42
2023-05-12T21:03:27.448Z,14.40
2023-05-12T21:06:30.084Z,14.41
2023-05-12T21:09:33.640Z,14.40
2023-05-12T21:12:35.731Z,14.33
2023-05-12T21:15:37.290Z,14.30
2023-05-12T21:18:40.935Z,14.30
2023-05-12T21:21:42.998Z,14.28
2023-05-12T21:24:44.630Z,14.25
2023-05-12T21:27:48.339Z,14.26
2023-05-12T21:30:51.048Z,14.25
2023-05-12T21:33:54.300Z,14.23
2023-05-12T21:36:56.451Z,14.20
2023-05-12T21:39:58.256Z,14.13
2023-05-12T21:43:00.135Z,14.09
2023-05-12T21:46:02.328Z,14.09
2023-05-12T21:49:05.387Z,14.07
2023-05-12T21:52:07.572Z,14.03
2023-05-12T21:55:09.729Z,13.99
2023-05-12T21:58:11.841Z,13.93
2023-05-12T22:01:14.563Z,13.88
2023-05-12T22:04:21.998Z,13.89
2023-05-12T22:07:23.638Z,13.88
2023-05-12T22:10:30.914Z,13.90
2023-05-12T22:13:32.804Z,13.92
2023-05-12T22:16:41.380Z,13.91
2023-05-12T22:19:45.740Z,13.89
2023-05-12T22:22:47.506Z,13.90
2023-05-12T22:25:49.579Z,13.88
2023-05-12T22:28:51.426Z,13.89
2023-05-12T22:31:53.157Z,13.88
2023-05-12T22:34:56.464Z,13.87
2023-05-12T22:37:59.082Z,13.87
2023-05-12T22:41:01.056Z,13.89
2023-05-12T22:44:03.317Z,13.87
2023-05-12T22:47:06.270Z,13.86
2023-05-12T22:50:10.215Z,13.85
2023-05-12T22:53:12.019Z,13.83
2023-05-12T22:56:13.614Z,13.82
2023-05-12T22:59:15.804Z,13.82
2023-05-12T23:02:17.979Z,13.77
2023-05-12T23:05:21.277Z,13.71
2023-05-12T23:08:23.055Z,13.70
2023-05-12T23:11:26.052Z,13.69
2023-05-12T23:14:28.433Z,13.68
2023-05-12T23:17:30.176Z,13.69
2023-05-12T23:20:33.980Z,13.68
2023-05-12T23:23:35.958Z,13.70
2023-05-12T23:26:37.857Z,13.68
2023-05-12T23:29:39.474Z,13.66
2023-05-12T23:32:42.471Z,13.60
2023-05-12T23:35:49.818Z,13.63
2023-05-12T23:39:11.909Z,13.66
2023-05-12T23:42:13.677Z,13.63
2023-05-12T23:45:15.931Z,13.59
2023-05-12T23:48:17.740Z,13.56
2023-05-12T23:51:21.331Z,13.58
2023-05-12T23:54:23.086Z,13.57
2023-05-12T23:57:24.973Z,13.54
